createdAt,value
2018-05-29T00:00:49.707Z,16.90
2018-05-29T00:03:19.023Z,17.00
2018-05-29T00:05:47.410Z,17.00
2018-05-29T00:08:15.803Z,17.00
2018-05-29T00:10:45.096Z,17.00
2018-05-29T00:13:13.467Z,17.00
2018-05-29T00:15:42.745Z,17.00
2018-05-29T00:18:11.147Z,16.90
2018-05-29T00:20:39.531Z,16.90
2018-05-29T00:23:08.059Z,16.90
2018-05-29T00:25:36.474Z,16.90
2018-05-29T00:28:04.863Z,16.90
2018-05-29T00:30:34.010Z,16.80
2018-05-29T00:33:02.527Z,16.70
2018-05-29T00:35:31.078Z,16.80
2018-05-29T00:37:59.562Z,16.70
2018-05-29T00:40:27.937Z,16.70
2018-05-29T00:42:56.323Z,16.70
2018-05-29T00:45:24.685Z,16.60
2018-05-29T00:47:53.059Z,16.70
2018-05-29T00:50:21.519Z,16.70
2018-05-29T00:52:50.028Z,16.60
2018-05-29T00:55:30.283Z,16.60
2018-05-29T00:57:59.110Z,16.60
2018-05-29T01:00:27.618Z,16.50
2018-05-29T01:02:56.051Z,16.50
2018-05-29T01:05:24.483Z,16.50
2018-05-29T01:07:53.063Z,16.40
2018-05-29T01:10:21.528Z,16.40
2018-05-29T01:12:50.002Z,16.30
2018-05-29T01:15:18.567Z,16.30
2018-05-29T01:17:47.711Z,16.20
2018-05-29T01:20:16.266Z,16.20
2018-05-29T01:22:45.423Z,16.10
2018-05-29T01:25:13.983Z,16.10
2018-05-29T01:27:42.359Z,16.10
2018-05-29T01:30:10.982Z,16.00
2018-05-29T01:32:39.542Z,15.90
2018-05-29T01:35:08.035Z,15.90
2018-05-29T01:37:37.347Z,15.80
2018-05-29T01:40:05.908Z,15.80
2018-05-29T01:42:34.463Z,15.70
2018-05-29T01:45:03.666Z,15.70
2018-05-29T01:47:32.207Z,15.60
2018-05-29T01:50:00.731Z,15.70
2018-05-29T01:52:29.131Z,15.60
2018-05-29T01:54:59.330Z,15.50
2018-05-29T01:57:28.051Z,15.50
2018-05-29T01:59:56.448Z,15.50
2018-05-29T02:02:25.726Z,15.40
2018-05-29T02:04:54.274Z,15.40
2018-05-29T02:07:23.583Z,15.30
2018-05-29T02:09:52.151Z,15.30
2018-05-29T02:12:20.761Z,15.30
2018-05-29T02:14:49.258Z,15.30
2018-05-29T02:17:17.809Z,15.30
2018-05-29T02:19:46.277Z,15.40
2018-05-29T02:22:15.507Z,15.50
2018-05-29T02:24:43.899Z,15.50
2018-05-29T02:27:13.107Z,15.60
2018-05-29T02:29:42.411Z,15.60
2018-05-29T02:32:10.939Z,15.60
2018-05-29T02:34:40.091Z,15.80
2018-05-29T02:37:10.671Z,15.80
2018-05-29T02:39:39.039Z,15.80
2018-05-29T02:42:08.709Z,15.90
2018-05-29T02:44:37.699Z,15.90
2018-05-29T02:47:06.136Z,15.90
2018-05-29T02:49:34.686Z,15.90
2018-05-29T02:52:03.907Z,16.00
2018-05-29T02:54:33.382Z,16.00
2018-05-29T02:57:01.786Z,16.00
2018-05-29T02:59:31.879Z,15.90
2018-05-29T03:02:00.368Z,15.90
2018-05-29T03:04:28.749Z,15.80
2018-05-29T03:06:57.210Z,15.60
2018-05-29T03:09:25.766Z,15.60
2018-05-29T03:11:55.072Z,15.50
2018-05-29T03:14:23.488Z,15.40
2018-05-29T03:16:51.990Z,15.40
2018-05-29T03:19:20.389Z,15.40
2018-05-29T03:21:48.945Z,15.50
2018-05-29T03:24:17.364Z,15.60
2018-05-29T03:26:45.863Z,15.70
2018-05-29T03:29:14.383Z,15.80
2018-05-29T03:31:43.558Z,16.00
2018-05-29T03:34:12.799Z,16.10
2018-05-29T03:36:42.083Z,16.30
2018-05-29T03:39:10.479Z,16.20
2018-05-29T03:41:38.895Z,16.40
2018-05-29T03:44:07.343Z,16.50
2018-05-29T03:46:36.867Z,16.50
2018-05-29T03:49:05.251Z,16.60
2018-05-29T03:51:33.623Z,16.60
2018-05-29T03:54:02.790Z,16.70
2018-05-29T03:56:31.907Z,16.70
2018-05-29T03:59:00.339Z,16.70
2018-05-29T04:01:30.788Z,16.70
2018-05-29T04:03:59.339Z,16.80
2018-05-29T04:06:27.710Z,16.90
2018-05-29T04:08:56.105Z,16.90
2018-05-29T04:11:24.500Z,17.00
2018-05-29T04:13:52.915Z,17.00
2018-05-29T04:16:22.036Z,17.00
2018-05-29T04:18:51.687Z,17.00
2018-05-29T04:21:20.081Z,17.00
2018-05-29T04:23:48.628Z,17.10
2018-05-29T04:26:17.938Z,17.30
2018-05-29T04:28:46.308Z,17.30
2018-05-29T04:31:14.671Z,17.50
2018-05-29T04:33:43.091Z,17.60
2018-05-29T04:36:11.455Z,17.70
2018-05-29T04:38:39.855Z,17.70
2018-05-29T04:41:08.975Z,17.80
2018-05-29T04:43:37.519Z,17.90
2018-05-29T04:46:05.934Z,18.00
2018-05-29T04:48:34.304Z,18.10
2018-05-29T04:51:02.679Z,18.20
2018-05-29T04:53:31.107Z,18.30
2018-05-29T04:55:59.642Z,18.40
2018-05-29T04:58:28.819Z,18.50
2018-05-29T05:00:58.879Z,18.60
2018-05-29T05:03:29.967Z,18.50
2018-05-29T05:05:59.642Z,18.80
2018-05-29T05:08:28.063Z,18.80
2018-05-29T05:10:56.511Z,18.90
2018-05-29T05:13:24.982Z,19.00
2018-05-29T05:15:54.162Z,19.20
2018-05-29T05:18:23.359Z,19.20
2018-05-29T05:20:51.861Z,19.20
2018-05-29T05:23:20.268Z,19.30
2018-05-29T05:25:49.130Z,19.30
2018-05-29T05:28:18.283Z,19.50
2018-05-29T05:30:46.830Z,19.50
2018-05-29T05:33:15.966Z,19.70
2018-05-29T05:35:44.347Z,19.70
2018-05-29T05:38:12.731Z,19.80
2018-05-29T05:40:41.143Z,19.80
2018-05-29T05:43:09.555Z,19.90
2018-05-29T05:45:37.951Z,20.10
2018-05-29T05:48:07.102Z,20.40
2018-05-29T05:50:36.290Z,20.50
2018-05-29T05:53:04.679Z,20.50
2018-05-29T05:55:33.299Z,20.70
2018-05-29T05:58:01.671Z,20.90
2018-05-29T06:00:30.075Z,21.00
2018-05-29T06:02:59.786Z,21.10
2018-05-29T06:05:28.947Z,21.10
2018-05-29T06:07:59.043Z,21.30
2018-05-29T06:10:27.999Z,21.30
2018-05-29T06:12:58.084Z,21.40
2018-05-29T06:15:27.422Z,21.70
2018-05-29T06:17:55.843Z,21.70
2018-05-29T06:20:24.994Z,22.10
2018-05-29T06:22:53.377Z,22.10
2018-05-29T06:25:21.759Z,22.30
2018-05-29T06:27:51.096Z,22.70
2018-05-29T06:30:19.523Z,22.70
2018-05-29T06:32:48.006Z,22.90
2018-05-29T06:35:16.574Z,22.90
2018-05-29T06:37:45.114Z,23.00
2018-05-29T06:40:13.615Z,23.10
2018-05-29T06:42:42.175Z,23.10
2018-05-29T06:45:11.546Z,23.40
2018-05-29T06:47:39.987Z,23.40
2018-05-29T06:50:09.050Z,23.70
2018-05-29T06:52:37.611Z,23.90
2018-05-29T06:55:06.151Z,24.20
2018-05-29T06:57:34.538Z,24.40
2018-05-29T07:00:02.980Z,24.60
2018-05-29T07:02:31.523Z,24.90
2018-05-29T07:05:00.062Z,25.20
2018-05-29T07:07:28.572Z,25.60
2018-05-29T07:09:57.063Z,26.00
2018-05-29T07:12:26.360Z,26.30
2018-05-29T07:14:57.641Z,26.20
2018-05-29T07:17:26.908Z,27.10
2018-05-29T07:19:55.372Z,27.00
2018-05-29T07:22:23.769Z,27.20
2018-05-29T07:24:52.309Z,27.30
2018-05-29T07:27:20.752Z,27.70
2018-05-29T07:29:50.044Z,28.40
2018-05-29T07:32:18.442Z,28.30
2018-05-29T07:34:47.767Z,28.50
2018-05-29T07:37:16.155Z,28.50
2018-05-29T07:39:45.412Z,28.70
2018-05-29T07:42:13.967Z,28.70
2018-05-29T07:44:43.247Z,28.20
2018-05-29T07:47:11.799Z,28.20
2018-05-29T07:49:40.382Z,28.10
2018-05-29T07:52:09.831Z,27.50
2018-05-29T07:54:38.389Z,27.50
2018-05-29T07:57:06.770Z,27.20
2018-05-29T07:59:35.343Z,27.10
2018-05-29T08:02:03.742Z,26.90
2018-05-29T08:04:32.280Z,26.80
2018-05-29T08:07:00.731Z,26.90
2018-05-29T08:09:29.106Z,26.80
2018-05-29T08:11:57.504Z,26.80
2018-05-29T08:14:26.066Z,27.00
2018-05-29T08:16:54.470Z,27.10
2018-05-29T08:19:22.898Z,27.20
2018-05-29T08:21:52.063Z,27.00
2018-05-29T08:24:20.464Z,27.00
2018-05-29T08:26:49.000Z,27.00
2018-05-29T08:29:17.578Z,27.10
2018-05-29T08:31:46.263Z,27.00
2018-05-29T08:34:14.799Z,26.90
2018-05-29T08:36:43.246Z,26.60
2018-05-29T08:39:12.771Z,26.70
2018-05-29T08:41:41.232Z,26.90
2018-05-29T08:44:09.826Z,26.90
2018-05-29T08:46:39.641Z,26.80
2018-05-29T08:49:08.238Z,26.70
2018-05-29T08:51:36.671Z,26.80
2018-05-29T08:54:05.063Z,26.70
2018-05-29T08:56:33.503Z,26.70
2018-05-29T08:59:02.812Z,26.90
2018-05-29T09:01:31.211Z,26.90
2018-05-29T09:04:00.559Z,27.10
2018-05-29T09:06:28.983Z,27.00
2018-05-29T09:08:57.474Z,27.10
2018-05-29T09:11:25.861Z,26.90
2018-05-29T09:13:54.314Z,26.90
2018-05-29T09:16:22.727Z,26.90
2018-05-29T09:18:51.128Z,26.90
2018-05-29T09:21:19.546Z,26.80
2018-05-29T09:23:48.079Z,26.70
2018-05-29T09:26:17.245Z,27.00
2018-05-29T09:28:45.823Z,27.00
2018-05-29T09:31:15.038Z,27.00
2018-05-29T09:33:44.955Z,27.00
2018-05-29T09:36:13.333Z,27.00
2018-05-29T09:38:41.737Z,27.00
2018-05-29T09:41:10.884Z,27.10
2018-05-29T09:43:39.411Z,27.00
2018-05-29T09:46:07.791Z,27.10
2018-05-29T09:48:36.283Z,27.20
2018-05-29T09:51:05.447Z,27.10
2018-05-29T09:53:33.847Z,27.10
2018-05-29T09:56:02.270Z,27.10
2018-05-29T09:58:31.398Z,26.70
2018-05-29T10:00:59.803Z,26.70
2018-05-29T10:03:28.225Z,26.80
2018-05-29T10:05:57.143Z,26.90
2018-05-29T10:08:25.546Z,26.90
2018-05-29T10:10:53.919Z,26.90
2018-05-29T10:13:23.836Z,26.90
2018-05-29T10:15:52.211Z,26.90
2018-05-29T10:18:20.610Z,27.00
2018-05-29T10:20:49.970Z,27.00
2018-05-29T10:23:18.389Z,27.00
2018-05-29T10:25:47.706Z,27.00
2018-05-29T10:28:16.079Z,27.00
2018-05-29T10:30:44.474Z,27.00
2018-05-29T10:33:13.639Z,26.90
2018-05-29T10:35:43.003Z,26.90
2018-05-29T10:38:11.501Z,27.00
2018-05-29T10:40:39.993Z,27.00
2018-05-29T10:43:08.542Z,27.10
2018-05-29T10:45:36.959Z,27.10
2018-05-29T10:48:05.465Z,27.10
2018-05-29T10:50:33.859Z,27.10
2018-05-29T10:53:03.924Z,27.20
2018-05-29T10:55:32.302Z,27.30
2018-05-29T10:58:01.625Z,27.40
2018-05-29T11:00:30.064Z,27.40
2018-05-29T11:02:59.495Z,27.40
2018-05-29T11:05:27.896Z,27.60
2018-05-29T11:07:56.318Z,27.60
2018-05-29T11:10:24.871Z,27.60
2018-05-29T11:12:54.218Z,27.70
2018-05-29T11:15:23.899Z,27.70
2018-05-29T11:17:52.451Z,27.60
2018-05-29T11:20:21.006Z,27.70
2018-05-29T11:22:49.566Z,27.70
2018-05-29T11:25:17.947Z,27.80
2018-05-29T11:27:46.363Z,27.90
2018-05-29T11:30:14.883Z,27.90
2018-05-29T11:32:43.435Z,27.90
2018-05-29T11:35:12.798Z,27.90
2018-05-29T11:37:41.303Z,27.90
2018-05-29T11:40:09.735Z,27.90
2018-05-29T11:42:38.279Z,28.00
2018-05-29T11:45:06.834Z,28.00
2018-05-29T11:47:35.908Z,28.00
2018-05-29T11:50:05.167Z,28.00
2018-05-29T11:52:33.702Z,28.10
2018-05-29T11:55:03.022Z,28.10
2018-05-29T11:57:31.414Z,28.30
2018-05-29T12:00:00.743Z,28.40
2018-05-29T12:02:29.283Z,28.30
2018-05-29T12:04:57.699Z,28.40
2018-05-29T12:07:26.111Z,28.40
2018-05-29T12:09:55.307Z,28.50
2018-05-29T12:12:25.619Z,28.50
2018-05-29T12:14:54.112Z,28.50
2018-05-29T12:17:22.984Z,28.50
2018-05-29T12:19:51.351Z,28.50
2018-05-29T12:22:19.830Z,28.40
2018-05-29T12:24:48.347Z,28.30
2018-05-29T12:27:16.715Z,28.40
2018-05-29T12:29:47.421Z,28.40
2018-05-29T12:32:16.774Z,28.20
2018-05-29T12:34:45.282Z,28.20
2018-05-29T12:37:13.676Z,28.10
2018-05-29T12:39:43.131Z,28.20
2018-05-29T12:42:11.530Z,28.30
2018-05-29T12:44:39.915Z,28.50
2018-05-29T12:47:08.319Z,28.60
2018-05-29T12:49:37.627Z,28.40
2018-05-29T12:52:06.064Z,28.40
2018-05-29T12:54:34.463Z,28.30
2018-05-29T12:57:03.990Z,28.50
2018-05-29T12:59:33.139Z,28.60
2018-05-29T13:02:01.513Z,28.60
2018-05-29T13:04:29.873Z,28.70
2018-05-29T13:07:00.125Z,28.60
2018-05-29T13:09:28.537Z,28.60
2018-05-29T13:11:57.751Z,28.60
2018-05-29T13:14:26.214Z,28.60
2018-05-29T13:16:54.616Z,28.50
2018-05-29T13:19:24.683Z,28.40
2018-05-29T13:21:53.052Z,28.40
2018-05-29T13:24:21.422Z,28.40
2018-05-29T13:26:49.807Z,28.50
2018-05-29T13:29:19.114Z,28.70
2018-05-29T13:31:47.505Z,28.70
2018-05-29T13:34:15.883Z,28.70
2018-05-29T13:36:45.187Z,28.60
2018-05-29T13:39:14.370Z,28.70
2018-05-29T13:41:44.055Z,28.70
2018-05-29T13:44:12.427Z,28.80
2018-05-29T13:46:40.779Z,28.70
2018-05-29T13:49:09.204Z,28.60
2018-05-29T13:51:37.647Z,28.70
2018-05-29T13:54:06.017Z,28.70
2018-05-29T13:56:34.487Z,28.70
2018-05-29T13:59:03.955Z,28.70
2018-05-29T14:01:32.311Z,28.70
2018-05-29T14:04:00.675Z,28.70
2018-05-29T14:06:29.062Z,28.80
2018-05-29T14:08:57.512Z,28.80
2018-05-29T14:11:25.866Z,28.80
2018-05-29T14:13:54.366Z,28.90
2018-05-29T14:16:23.551Z,29.10
2018-05-29T14:18:51.936Z,29.10
2018-05-29T14:21:20.292Z,29.20
2018-05-29T14:23:48.690Z,29.00
2018-05-29T14:26:17.039Z,29.10
2018-05-29T14:28:45.420Z,29.30
2018-05-29T14:31:13.963Z,29.40
2018-05-29T14:33:42.501Z,29.60
2018-05-29T14:36:10.980Z,29.70
2018-05-29T14:38:40.719Z,29.40
2018-05-29T14:41:09.090Z,29.30
2018-05-29T14:43:38.644Z,28.90
2018-05-29T14:46:07.192Z,28.90
2018-05-29T14:48:35.583Z,28.70
2018-05-29T14:51:06.198Z,28.30
2018-05-29T14:53:34.739Z,28.40
2018-05-29T14:56:03.304Z,28.50
2018-05-29T14:58:31.694Z,28.50
2018-05-29T15:01:00.920Z,28.50
2018-05-29T15:03:29.478Z,28.30
2018-05-29T15:05:57.844Z,28.20
2018-05-29T15:08:26.391Z,28.30
2018-05-29T15:10:54.851Z,28.20
2018-05-29T15:13:24.031Z,27.90
2018-05-29T15:15:53.337Z,27.80
2018-05-29T15:18:21.787Z,27.70
2018-05-29T15:20:50.236Z,27.70
2018-05-29T15:23:18.839Z,27.70
2018-05-29T15:25:47.246Z,27.50
2018-05-29T15:28:16.271Z,27.40
2018-05-29T15:30:44.683Z,27.20
2018-05-29T15:33:13.142Z,27.20
2018-05-29T15:35:41.663Z,27.20
2018-05-29T15:38:11.526Z,27.20
2018-05-29T15:40:40.906Z,27.20
2018-05-29T15:43:09.290Z,27.10
2018-05-29T15:45:37.647Z,27.30
2018-05-29T15:48:06.138Z,27.40
2018-05-29T15:50:34.515Z,27.30
2018-05-29T15:53:03.724Z,27.20
2018-05-29T15:55:32.095Z,27.30
2018-05-29T15:58:00.486Z,27.20
2018-05-29T16:00:29.035Z,27.20
2018-05-29T16:02:59.082Z,27.10
2018-05-29T16:05:27.447Z,27.00
2018-05-29T16:07:55.866Z,27.00
2018-05-29T16:10:24.496Z,26.90
2018-05-29T16:12:53.763Z,26.80
2018-05-29T16:15:22.323Z,26.70
2018-05-29T16:17:50.796Z,26.70
2018-05-29T16:20:20.055Z,26.60
2018-05-29T16:22:48.443Z,26.50
2018-05-29T16:25:16.824Z,26.60
2018-05-29T16:27:46.080Z,26.40
2018-05-29T16:30:15.319Z,26.30
2018-05-29T16:32:44.521Z,26.30
2018-05-29T16:35:13.129Z,26.20
2018-05-29T16:37:41.572Z,26.20
2018-05-29T16:40:09.996Z,26.20
2018-05-29T16:42:40.047Z,26.10
2018-05-29T16:45:08.423Z,26.10
2018-05-29T16:47:36.812Z,26.10
2018-05-29T16:50:05.213Z,26.00
2018-05-29T16:52:33.622Z,26.00
2018-05-29T16:55:02.107Z,25.90
2018-05-29T16:57:30.609Z,25.90
2018-05-29T16:59:59.003Z,25.90
2018-05-29T17:02:27.455Z,25.90
2018-05-29T17:04:55.822Z,25.80
2018-05-29T17:07:24.254Z,25.80
2018-05-29T17:09:52.795Z,25.60
2018-05-29T17:12:22.102Z,25.60
2018-05-29T17:14:50.479Z,25.60
2018-05-29T17:17:18.858Z,25.40
2018-05-29T17:19:47.296Z,25.40
2018-05-29T17:22:15.663Z,25.50
2018-05-29T17:24:44.037Z,25.50
2018-05-29T17:27:12.458Z,25.50
2018-05-29T17:29:41.618Z,25.50
2018-05-29T17:32:10.243Z,25.50
2018-05-29T17:34:38.794Z,25.50
2018-05-29T17:37:07.195Z,25.30
2018-05-29T17:39:37.038Z,25.30
2018-05-29T17:42:05.438Z,25.30
2018-05-29T17:44:34.591Z,25.20
2018-05-29T17:47:02.947Z,25.20
2018-05-29T17:49:31.347Z,25.20
2018-05-29T17:52:00.450Z,25.00
2018-05-29T17:54:29.003Z,25.10
2018-05-29T17:56:57.424Z,25.00
2018-05-29T17:59:25.787Z,24.90
2018-05-29T18:01:55.071Z,25.00
2018-05-29T18:04:25.759Z,24.90
2018-05-29T18:06:54.127Z,24.90
2018-05-29T18:09:22.479Z,24.80
2018-05-29T18:11:50.915Z,24.80
2018-05-29T18:14:19.318Z,24.70
2018-05-29T18:16:47.887Z,24.70
2018-05-29T18:19:16.246Z,24.60
2018-05-29T18:21:44.596Z,24.60
2018-05-29T18:24:13.750Z,24.50
2018-05-29T18:26:43.752Z,24.50
2018-05-29T18:29:12.167Z,24.40
2018-05-29T18:31:40.564Z,24.40
2018-05-29T18:34:10.195Z,24.40
2018-05-29T18:36:38.606Z,24.40
2018-05-29T18:39:07.911Z,24.60
2018-05-29T18:41:36.323Z,24.60
2018-05-29T18:44:04.688Z,24.30
2018-05-29T18:46:33.080Z,24.40
2018-05-29T18:49:01.512Z,24.40
2018-05-29T18:51:30.651Z,24.20
2018-05-29T18:53:59.084Z,24.10
2018-05-29T18:56:27.632Z,24.20
2018-05-29T18:58:55.994Z,24.40
2018-05-29T19:01:24.546Z,24.50
2018-05-29T19:03:54.077Z,24.50
2018-05-29T19:06:22.632Z,24.20
2018-05-29T19:08:51.007Z,24.20
2018-05-29T19:11:19.575Z,24.10
2018-05-29T19:13:48.883Z,24.10
2018-05-29T19:16:17.431Z,24.10
2018-05-29T19:18:46.562Z,24.20
2018-05-29T19:21:14.980Z,24.20
2018-05-29T19:23:43.526Z,24.30
2018-05-29T19:26:11.880Z,24.30
2018-05-29T19:28:41.258Z,24.40
2018-05-29T19:31:10.519Z,24.40
2018-05-29T19:33:39.846Z,24.40
2018-05-29T19:36:08.283Z,24.40
2018-05-29T19:38:36.683Z,24.30
2018-05-29T19:41:05.067Z,24.20
2018-05-29T19:43:35.143Z,23.90
2018-05-29T19:46:03.695Z,23.70
2018-05-29T19:48:33.011Z,23.80
2018-05-29T19:51:01.647Z,23.70
2018-05-29T19:53:30.023Z,23.80
2018-05-29T19:55:58.962Z,23.80
2018-05-29T19:58:28.297Z,23.80
2018-05-29T20:00:57.483Z,23.80
2018-05-29T20:03:31.628Z,23.80
2018-05-29T20:06:00.700Z,23.70
2018-05-29T20:08:29.161Z,23.60
2018-05-29T20:10:58.961Z,23.50
2018-05-29T20:13:27.596Z,23.50
2018-05-29T20:15:56.104Z,23.40
2018-05-29T20:18:24.673Z,23.20
2018-05-29T20:20:53.076Z,23.00
2018-05-29T20:23:21.619Z,23.00
2018-05-29T20:25:50.072Z,22.80
2018-05-29T20:28:18.627Z,22.60
2018-05-29T20:30:47.171Z,22.50
2018-05-29T20:33:16.496Z,22.20
2018-05-29T20:35:45.807Z,22.10
2018-05-29T20:38:14.375Z,22.10
2018-05-29T20:40:43.683Z,21.90
2018-05-29T20:43:12.123Z,21.90
2018-05-29T20:45:40.687Z,21.80
2018-05-29T20:48:09.855Z,21.60
2018-05-29T20:50:38.344Z,21.60
2018-05-29T20:53:06.765Z,21.60
2018-05-29T20:55:35.307Z,21.50
2018-05-29T20:58:03.783Z,21.40
2018-05-29T21:00:32.186Z,21.30
2018-05-29T21:03:00.811Z,21.20
2018-05-29T21:05:29.356Z,21.10
2018-05-29T21:07:58.550Z,20.90
2018-05-29T21:10:26.947Z,20.90
2018-05-29T21:12:57.055Z,20.80
2018-05-29T21:15:25.616Z,20.80
2018-05-29T21:17:54.063Z,20.70
2018-05-29T21:20:22.611Z,20.60
2018-05-29T21:22:53.227Z,20.50
2018-05-29T21:25:21.634Z,20.50
2018-05-29T21:27:50.010Z,20.40
2018-05-29T21:30:18.442Z,20.40
2018-05-29T21:32:49.004Z,20.40
2018-05-29T21:35:19.701Z,20.20
2018-05-29T21:37:48.878Z,20.10
2018-05-29T21:40:17.255Z,20.10
2018-05-29T21:42:45.658Z,20.00
2018-05-29T21:45:14.112Z,19.90
2018-05-29T21:47:42.499Z,19.80
2018-05-29T21:50:11.041Z,19.70
2018-05-29T21:52:39.523Z,19.60
2018-05-29T21:55:08.164Z,19.50
2018-05-29T21:57:36.579Z,19.50
2018-05-29T22:00:05.925Z,19.40
2018-05-29T22:02:35.085Z,19.40
2018-05-29T22:05:03.536Z,19.30
2018-05-29T22:07:32.670Z,19.30
2018-05-29T22:10:01.028Z,19.30
2018-05-29T22:12:30.203Z,19.30
2018-05-29T22:14:58.559Z,19.30
2018-05-29T22:17:26.940Z,19.30
2018-05-29T22:19:55.479Z,19.30
2018-05-29T22:22:23.893Z,19.30
2018-05-29T22:24:53.219Z,19.20
2018-05-29T22:27:21.587Z,19.20
2018-05-29T22:29:50.047Z,19.20
2018-05-29T22:32:19.187Z,19.10
2018-05-29T22:34:48.909Z,19.10
2018-05-29T22:37:18.843Z,19.00
2018-05-29T22:39:47.242Z,18.90
2018-05-29T22:42:16.395Z,18.80
2018-05-29T22:44:44.895Z,18.80
2018-05-29T22:47:13.283Z,18.70
2018-05-29T22:49:41.707Z,18.70
2018-05-29T22:52:10.199Z,18.60
2018-05-29T22:54:38.735Z,18.40
2018-05-29T22:57:07.135Z,18.40
2018-05-29T22:59:35.494Z,18.40
2018-05-29T23:02:03.915Z,18.30
2018-05-29T23:04:32.455Z,18.20
2018-05-29T23:07:01.095Z,18.10
2018-05-29T23:09:30.270Z,17.90
2018-05-29T23:11:58.654Z,17.90
2018-05-29T23:14:27.234Z,17.80
2018-05-29T23:16:56.005Z,17.80
2018-05-29T23:19:24.367Z,17.80
2018-05-29T23:21:52.780Z,17.80
2018-05-29T23:24:22.088Z,17.70
2018-05-29T23:26:50.483Z,17.70
2018-05-29T23:29:18.867Z,17.70
2018-05-29T23:31:47.289Z,17.60
2018-05-29T23:34:15.712Z,17.60
2018-05-29T23:36:44.083Z,17.60
2018-05-29T23:39:12.509Z,17.60
2018-05-29T23:41:41.047Z,17.50
2018-05-29T23:44:09.463Z,17.60
2018-05-29T23:46:38.783Z,17.60
2018-05-29T23:49:07.200Z,17.50
2018-05-29T23:51:36.502Z,17.50
2018-05-29T23:54:04.882Z,17.50
2018-05-29T23:56:34.899Z,17.40
2018-05-29T23:59:03.323Z,17.40
